Time;durP1;ratioP1;P1;durP2;ratioP2;P2;SDS_P1;SDS_P2;PMS_P1;PMS_P2;Temp;Humidity;BMP_temperature;BMP_pressure;BME280_temperature;BME280_humidity;BME280_pressure;Samples;Min_cycle;Max_cycle;Signal;HPM_P1;HPM_P2
2022/11/21 00:00:28;;;;;;;7.25;1.98;;;8.20;99.90;;;;;;5057580;28;20297;-58
2022/11/21 00:02:58;;;;;;;5.45;1.45;;;8.20;99.90;;;;;;5057666;28;20025;-59
2022/11/21 00:05:24;;;;;;;5.68;1.73;;;8.30;99.90;;;;;;5056976;28;20041;-58
2022/11/21 00:07:50;;;;;;;6.03;1.50;;;8.40;99.90;;;;;;5057441;28;20025;-60
2022/11/21 00:10:16;;;;;;;4.00;1.52;;;8.30;99.90;;;;;;5056834;28;20102;-61
2022/11/21 00:12:42;;;;;;;7.82;1.65;;;8.40;99.90;;;;;;5057835;28;20029;-60
2022/11/21 00:15:08;;;;;;;9.73;1.77;;;8.40;99.90;;;;;;5057461;28;20029;-60
2022/11/21 00:17:34;;;;;;;5.28;1.70;;;8.40;99.90;;;;;;5057362;28;20458;-59
2022/11/21 00:20:00;;;;;;;5.80;1.55;;;8.30;99.90;;;;;;5040192;28;20080;-58
2022/11/21 00:22:26;;;;;;;5.97;1.75;;;8.30;99.90;;;;;;5057322;28;20127;-59
2022/11/21 00:24:52;;;;;;;5.90;1.65;;;8.20;99.90;;;;;;5057297;28;20266;-59
2022/11/21 00:27:17;;;;;;;6.25;2.05;;;8.40;99.90;;;;;;5057268;28;20055;-59
2022/11/21 00:29:43;;;;;;;10.18;2.50;;;8.20;99.90;;;;;;5057230;28;20112;-59
2022/11/21 00:32:09;;;;;;;6.80;2.45;;;8.10;99.90;;;;;;5056596;28;20341;-58
2022/11/21 00:34:35;;;;;;;14.52;2.88;;;8.00;99.90;;;;;;5057674;28;20033;-59
2022/11/21 00:37:00;;;;;;;6.63;2.85;;;8.10;99.90;;;;;;5057288;28;20033;-59
2022/11/21 00:39:27;;;;;;;5.57;2.97;;;8.00;99.90;;;;;;5057054;28;20037;-60
2022/11/21 00:41:53;;;;;;;7.57;2.92;;;7.70;99.90;;;;;;5057068;28;20029;-61
2022/11/21 00:44:18;;;;;;;8.45;3.05;;;7.60;99.90;;;;;;5057082;28;20087;-60
2022/11/21 00:46:44;;;;;;;8.68;3.00;;;7.60;99.90;;;;;;5056293;28;20065;-61
2022/11/21 00:49:10;;;;;;;7.97;3.20;;;7.50;99.90;;;;;;5056944;28;20036;-60
2022/11/21 00:51:36;;;;;;;7.20;3.38;;;7.50;99.90;;;;;;5056939;28;20040;-60
2022/11/21 00:54:01;;;;;;;11.93;3.60;;;7.60;99.90;;;;;;5039615;28;20443;-60
2022/11/21 00:56:27;;;;;;;8.82;3.22;;;7.80;99.90;;;;;;5056138;28;20029;-60
2022/11/21 00:58:53;;;;;;;7.82;2.80;;;7.90;99.90;;;;;;5056766;28;20029;-61
2022/11/21 01:01:19;;;;;;;9.82;3.35;;;7.80;99.90;;;;;;5056204;28;20029;-61
2022/11/21 01:03:45;;;;;;;7.30;2.30;;;7.70;99.90;;;;;;5039261;28;20048;-60
2022/11/21 01:06:14;;;;;;;5.45;2.25;;;7.60;99.90;;;;;;5056055;28;20033;-61
2022/11/21 01:08:42;;;;;;;8.43;2.30;;;7.60;99.90;;;;;;5056827;28;20120;-61
2022/11/21 01:11:13;;;;;;;5.78;1.92;;;7.60;99.90;;;;;;5055993;28;20033;-61
2022/11/21 01:13:40;;;;;;;7.18;2.20;;;7.50;99.90;;;;;;5056722;28;20041;-61
2022/11/21 01:16:11;;;;;;;6.30;2.00;;;7.50;99.90;;;;;;5056661;28;20228;-59
2022/11/21 01:18:37;;;;;;;7.57;2.35;;;7.60;99.90;;;;;;5056697;28;20434;-59
2022/11/21 01:21:06;;;;;;;12.00;2.53;;;7.70;99.90;;;;;;5055812;28;20025;-59
2022/11/21 01:23:33;;;;;;;8.50;2.53;;;7.70;99.90;;;;;;5055750;28;20340;-59
2022/11/21 01:26:03;;;;;;;8.10;2.30;;;7.80;99.90;;;;;;5055842;28;20029;-59
2022/11/21 01:28:30;;;;;;;9.43;2.88;;;7.80;99.90;;;;;;5055688;28;20423;-59
2022/11/21 01:31:13;;;;;;;6.72;2.55;;;7.80;99.90;;;;;;5055848;28;20064;-59
2022/11/21 01:33:40;;;;;;;5.57;2.40;;;7.80;99.90;;;;;;5056473;28;20098;-59
2022/11/21 01:36:13;;;;;;;7.20;2.83;;;7.70;99.90;;;;;;5056368;28;20029;-59
2022/11/21 01:38:47;;;;;;;7.82;2.58;;;7.80;99.90;;;;;;5055622;28;20143;-59
2022/11/21 01:41:16;;;;;;;6.53;2.50;;;7.60;99.90;;;;;;5056690;28;20029;-59
2022/11/21 01:43:42;;;;;;;8.15;3.05;;;7.60;99.90;;;;;;5056391;28;20025;-58
2022/11/21 01:46:08;;;;;;;9.55;2.65;;;7.70;99.90;;;;;;5056290;28;20032;-58
2022/11/21 01:49:01;;;;;;;10.63;3.10;;;7.80;99.90;;;;;;5055417;28;20051;-60
2022/11/21 01:51:31;;;;;;;;;;;7.70;99.90;;;;;;5057316;28;20500;-59
2022/11/21 01:54:22;;;;;;;10.43;2.90;;;7.60;99.90;;;;;;5055544;28;19961;-58
2022/11/21 01:57:07;;;;;;;9.70;3.13;;;7.70;99.90;;;;;;5053074;28;20095;-59
2022/11/21 01:59:41;;;;;;;7.10;2.38;;;7.80;99.90;;;;;;5056285;28;20029;-59
2022/11/21 02:02:10;;;;;;;9.10;2.53;;;7.70;99.90;;;;;;5055379;28;20116;-58
2022/11/21 02:04:38;;;;;;;5.32;2.35;;;7.70;99.90;;;;;;5055229;28;20045;-59
2022/11/21 02:07:06;;;;;;;8.55;2.25;;;7.70;99.90;;;;;;5057884;28;20037;-59
2022/11/21 02:09:34;;;;;;;5.38;2.03;;;7.60;99.90;;;;;;5059025;28;20032;-59
2022/11/21 02:12:35;;;;;;;7.43;2.17;;;7.70;99.90;;;;;;5059767;28;20305;-58
2022/11/21 02:15:01;;;;;;;7.82;2.20;;;7.70;99.90;;;;;;5053068;28;20037;-58
2022/11/21 02:17:31;;;;;;;5.97;1.95;;;7.70;99.90;;;;;;5058974;28;20029;-58
2022/11/21 02:19:59;;;;;;;6.13;1.80;;;7.70;99.90;;;;;;5059529;28;20024;-58
2022/11/21 02:23:01;;;;;;;5.57;1.75;;;7.70;99.90;;;;;;5058792;28;20075;-58
2022/11/21 02:25:31;;;;;;;4.95;1.70;;;7.70;99.90;;;;;;5059014;28;20053;-58
2022/11/21 02:28:00;;;;;;;9.77;2.10;;;7.80;99.90;;;;;;5058774;28;20107;-58
2022/11/21 02:30:28;;;;;;;6.53;2.58;;;7.90;99.90;;;;;;5058945;28;20408;-59
2022/11/21 02:32:54;;;;;;;8.90;2.80;;;7.80;99.90;;;;;;5059352;28;20036;-58
2022/11/21 02:35:20;;;;;;;11.00;3.25;;;7.60;99.90;;;;;;5059397;28;20040;-59
2022/11/21 02:38:23;;;;;;;9.45;3.65;;;7.50;99.90;;;;;;5041989;28;20041;-60
2022/11/21 02:41:01;;;;;;;12.43;4.55;;;7.40;99.90;;;;;;5059427;28;20025;-59
2022/11/21 02:43:49;;;;;;;10.30;4.85;;;7.30;99.90;;;;;;5059122;28;20036;-60
2022/11/21 02:46:14;;;;;;;8.55;5.10;;;7.40;99.90;;;;;;5058407;28;20028;-60
2022/11/21 02:48:40;;;;;;;8.73;4.55;;;7.40;99.90;;;;;;5059092;28;20124;-59
2022/11/21 02:51:06;;;;;;;15.32;5.07;;;7.40;99.90;;;;;;5059087;28;20040;-60
2022/11/21 02:53:32;;;;;;;9.00;4.75;;;7.30;99.90;;;;;;5059038;28;20364;-60
2022/11/21 02:55:58;;;;;;;10.57;4.72;;;7.40;99.90;;;;;;5058222;28;20029;-59
2022/11/21 02:58:23;;;;;;;7.75;4.10;;;7.50;99.90;;;;;;5058157;28;20044;-59
2022/11/21 03:00:49;;;;;;;12.75;4.32;;;7.60;99.90;;;;;;5041557;28;20124;-60
2022/11/21 03:03:15;;;;;;;7.30;3.50;;;7.50;99.90;;;;;;5058364;28;20025;-60
2022/11/21 03:05:41;;;;;;;7.10;3.90;;;7.40;99.90;;;;;;5057878;28;20109;-60
2022/11/21 03:08:07;;;;;;;6.20;3.35;;;7.30;99.90;;;;;;5058702;28;20032;-60
2022/11/21 03:10:33;;;;;;;12.70;4.40;;;7.30;99.90;;;;;;5059069;28;20044;-60
2022/11/21 03:13:02;;;;;;;6.88;3.15;;;7.20;99.90;;;;;;5058037;28;20021;-60
2022/11/21 03:15:30;;;;;;;8.13;3.58;;;7.10;99.90;;;;;;5057879;28;20094;-60
2022/11/21 03:17:57;;;;;;;8.55;3.47;;;7.10;99.90;;;;;;5057765;28;20104;-60
2022/11/21 03:20:23;;;;;;;6.43;3.40;;;7.10;99.90;;;;;;5057740;28;20036;-60
2022/11/21 03:22:49;;;;;;;7.25;3.55;;;7.00;99.90;;;;;;5058453;28;20035;-61
2022/11/21 03:25:16;;;;;;;7.63;3.47;;;7.00;99.90;;;;;;5041062;28;20029;-60
2022/11/21 03:27:42;;;;;;;15.00;3.97;;;7.00;99.90;;;;;;5057732;28;20116;-60
2022/11/21 03:30:08;;;;;;;9.55;3.78;;;7.00;99.90;;;;;;5057667;28;20064;-60
2022/11/21 03:32:34;;;;;;;9.82;3.55;;;7.00;99.90;;;;;;5057631;28;20037;-60
2022/11/21 03:34:59;;;;;;;11.88;3.80;;;7.00;99.90;;;;;;5058106;28;20450;-60
2022/11/21 03:37:25;;;;;;;9.20;3.45;;;7.00;99.90;;;;;;5024515;28;20047;-59
2022/11/21 03:39:51;;;;;;;8.75;3.90;;;6.90;99.90;;;;;;5057289;28;20045;-59
2022/11/21 03:42:17;;;;;;;8.00;3.67;;;6.90;99.90;;;;;;5040717;28;20124;-60
2022/11/21 03:44:42;;;;;;;5.43;3.35;;;6.90;99.90;;;;;;5057265;28;20056;-60
2022/11/21 03:47:08;;;;;;;12.93;3.75;;;6.90;99.90;;;;;;5058387;28;20021;-59
2022/11/21 03:49:34;;;;;;;11.63;3.53;;;6.90;99.90;;;;;;5058446;28;20037;-60
2022/11/21 03:52:00;;;;;;;7.65;3.50;;;6.80;99.90;;;;;;5057815;28;20037;-60
2022/11/21 03:54:25;;;;;;;10.82;3.80;;;6.80;99.90;;;;;;5057139;28;20431;-60
2022/11/21 03:56:51;;;;;;;11.68;4.22;;;6.70;99.90;;;;;;5040456;28;20309;-60
2022/11/21 03:59:17;;;;;;;9.10;3.80;;;6.70;99.90;;;;;;5057971;28;20097;-60
2022/11/21 04:01:43;;;;;;;8.52;3.50;;;6.60;99.90;;;;;;5057043;28;20427;-59
2022/11/21 04:04:08;;;;;;;8.40;3.45;;;6.60;99.90;;;;;;5023779;28;20044;-60
2022/11/21 04:06:34;;;;;;;8.10;3.50;;;6.60;99.90;;;;;;5057690;28;20059;-59
2022/11/21 04:09:00;;;;;;;8.50;3.30;;;6.70;99.90;;;;;;5023876;28;20033;-60
2022/11/21 04:11:26;;;;;;;9.23;3.33;;;6.80;99.90;;;;;;5056795;28;20128;-59
2022/11/21 04:13:52;;;;;;;9.93;3.15;;;7.00;99.90;;;;;;5057526;28;20067;-60
2022/11/21 04:16:17;;;;;;;7.68;3.05;;;7.00;99.90;;;;;;5057540;28;20029;-61
2022/11/21 04:18:43;;;;;;;7.35;2.92;;;6.90;99.90;;;;;;5056589;28;20060;-60
2022/11/21 04:21:09;;;;;;;5.00;3.05;;;6.80;99.90;;;;;;5057329;28;20393;-60
2022/11/21 04:23:35;;;;;;;9.88;3.75;;;6.80;99.90;;;;;;5057376;28;20288;-60
2022/11/21 04:26:01;;;;;;;5.25;2.42;;;6.70;99.90;;;;;;5057300;28;20044;-60
2022/11/21 04:28:27;;;;;;;7.70;3.08;;;6.70;99.90;;;;;;5057144;28;20047;-60
2022/11/21 04:30:52;;;;;;;10.77;2.88;;;6.70;99.90;;;;;;5056927;28;20035;-60
2022/11/21 04:33:19;;;;;;;7.45;2.97;;;6.70;99.90;;;;;;5039842;28;20025;-60
2022/11/21 04:35:45;;;;;;;10.68;3.03;;;6.80;99.90;;;;;;5057196;28;20021;-61
2022/11/21 04:38:12;;;;;;;5.47;2.90;;;6.70;99.90;;;;;;5056271;28;20109;-60
2022/11/21 04:40:39;;;;;;;10.15;2.95;;;6.70;99.90;;;;;;5056384;28;20025;-60
2022/11/21 04:43:05;;;;;;;7.68;2.70;;;6.70;99.90;;;;;;5057071;28;20033;-60
2022/11/21 04:45:31;;;;;;;8.05;2.80;;;6.70;99.90;;;;;;5056996;28;20040;-60
2022/11/21 04:47:57;;;;;;;7.50;2.88;;;6.70;99.90;;;;;;5056197;28;20134;-60
2022/11/21 04:50:23;;;;;;;12.48;2.63;;;6.70;99.90;;;;;;5056926;28;20060;-60
2022/11/21 04:52:54;;;;;;;26.45;13.55;;;6.70;99.90;;;;;;5056487;28;20393;-60
2022/11/21 04:55:21;;;;;;;7.30;2.40;;;6.60;99.90;;;;;;5056809;28;20041;-61
2022/11/21 04:57:47;;;;;;;6.40;2.45;;;6.50;99.90;;;;;;5056172;28;20036;-62
2022/11/21 05:00:14;;;;;;;9.57;2.95;;;6.50;99.90;;;;;;5039419;28;20037;-62
2022/11/21 05:02:40;;;;;;;8.82;2.55;;;6.50;99.90;;;;;;5056755;28;20032;-62
2022/11/21 05:05:06;;;;;;;6.97;2.38;;;6.50;99.90;;;;;;5055923;28;20053;-62
2022/11/21 05:07:32;;;;;;;8.13;2.92;;;6.40;99.90;;;;;;5056773;28;20043;-62
2022/11/21 05:09:58;;;;;;;10.70;2.65;;;6.40;99.90;;;;;;5056690;28;20021;-61
2022/11/21 05:15:08;;;;;;;8.98;2.63;;;6.40;99.90;;;;;;5056727;28;20086;-62
2022/11/21 05:17:34;;;;;;;9.05;3.00;;;6.50;99.90;;;;;;5055877;28;20037;-62
2022/11/21 05:20:00;;;;;;;4.47;2.63;;;6.40;99.90;;;;;;5056981;28;20270;-62
2022/11/21 05:22:26;;;;;;;9.00;2.90;;;6.50;99.90;;;;;;5056664;28;20037;-62
2022/11/21 05:24:52;;;;;;;6.68;2.85;;;6.40;99.90;;;;;;5055952;28;20342;-62
2022/11/21 05:27:18;;;;;;;9.70;2.88;;;6.40;99.90;;;;;;5055960;28;20064;-62
2022/11/21 05:29:44;;;;;;;8.77;3.05;;;6.40;99.90;;;;;;5057119;28;20442;-61
2022/11/21 05:32:09;;;;;;;11.43;2.92;;;6.30;99.90;;;;;;5055766;28;20029;-61
2022/11/21 05:34:35;;;;;;;9.30;3.00;;;6.30;99.90;;;;;;5056495;28;20132;-61
2022/11/21 05:37:01;;;;;;;9.82;2.97;;;6.30;99.90;;;;;;5056420;28;20290;-62
2022/11/21 05:39:27;;;;;;;7.15;2.95;;;6.30;99.90;;;;;;5056669;28;20037;-61
2022/11/21 05:41:53;;;;;;;10.20;3.38;;;6.30;99.90;;;;;;5057843;28;20033;-62
2022/11/21 05:44:19;;;;;;;9.05;3.35;;;6.30;99.90;;;;;;5060297;28;20029;-61
2022/11/21 05:46:45;;;;;;;8.98;3.50;;;6.20;99.90;;;;;;5060155;28;20044;-62
2022/11/21 05:49:11;;;;;;;11.70;3.13;;;6.10;99.90;;;;;;5060289;28;20158;-62
2022/11/21 05:51:37;;;;;;;7.80;2.97;;;6.10;99.90;;;;;;5059463;28;20040;-62
2022/11/21 05:54:03;;;;;;;7.72;3.25;;;6.00;99.90;;;;;;5059826;28;20388;-61
2022/11/21 05:56:30;;;;;;;8.90;2.88;;;6.00;99.90;;;;;;5059990;28;20124;-61
2022/11/21 05:58:57;;;;;;;8.85;3.35;;;6.00;99.90;;;;;;5059887;28;20071;-62
2022/11/21 06:04:08;;;;;;;6.78;2.92;;;5.90;99.90;;;;;;5058993;28;20053;-62
2022/11/21 06:06:34;;;;;;;10.68;3.20;;;5.90;99.90;;;;;;5059848;28;20041;-62
2022/11/21 06:09:00;;;;;;;5.75;2.67;;;5.90;99.90;;;;;;5059844;28;20100;-62
2022/11/21 06:11:26;;;;;;;12.65;3.42;;;5.80;99.90;;;;;;5042356;28;20308;-63
2022/11/21 06:13:53;;;;;;;8.40;3.20;;;5.80;99.90;;;;;;5059701;28;20047;-63
2022/11/21 06:16:19;;;;;;;8.77;3.40;;;5.80;99.90;;;;;;5059754;28;20274;-62
2022/11/21 06:18:51;;;;;;;7.80;3.15;;;5.80;99.90;;;;;;5058999;28;20029;-62
2022/11/21 06:21:21;;;;;;;7.43;2.90;;;5.80;99.90;;;;;;5059641;28;20045;-61
2022/11/21 06:23:51;;;;;;;11.02;2.95;;;5.80;99.90;;;;;;5058906;28;20044;-61
2022/11/21 06:26:19;;;;;;;5.55;3.30;;;5.80;99.90;;;;;;5059455;28;20037;-59
2022/11/21 06:28:45;;;;;;;8.82;3.45;;;5.80;99.90;;;;;;5058720;28;20034;-59
2022/11/21 06:31:17;;;;;;;7.07;3.13;;;5.80;99.90;;;;;;5059894;28;20277;-60
2022/11/21 06:33:43;;;;;;;5.50;3.08;;;5.70;99.90;;;;;;5058749;28;20309;-62
2022/11/21 06:36:12;;;;;;;10.77;3.10;;;5.70;99.90;;;;;;5059345;28;20033;-59
2022/11/21 06:38:38;;;;;;;7.30;3.20;;;5.70;99.90;;;;;;5059191;28;20025;-60
2022/11/21 06:41:12;;;;;;;16.63;3.15;;;5.70;99.90;;;;;;5058745;28;20028;-61
2022/11/21 06:43:38;;;;;;;10.68;3.42;;;5.70;99.90;;;;;;5058435;28;20413;-59
2022/11/21 06:46:04;;;;;;;7.70;2.72;;;5.70;99.90;;;;;;5042121;28;20121;-61
2022/11/21 06:48:31;;;;;;;9.68;3.00;;;5.60;99.90;;;;;;5058438;28;20059;-61
2022/11/21 06:50:57;;;;;;;10.52;3.00;;;5.50;99.90;;;;;;5059038;28;20032;-60
2022/11/21 06:53:23;;;;;;;5.65;2.60;;;5.40;99.90;;;;;;5058804;28;20392;-60
2022/11/21 06:55:49;;;;;;;7.07;3.05;;;5.40;99.90;;;;;;5058801;28;20028;-60
2022/11/21 06:58:15;;;;;;;10.50;2.92;;;5.40;99.90;;;;;;5058823;28;20039;-60
2022/11/21 07:00:41;;;;;;;7.53;2.78;;;5.40;99.90;;;;;;5059114;28;20308;-61
2022/11/21 07:03:06;;;;;;;10.80;2.83;;;5.40;99.90;;;;;;5057963;28;20298;-60
2022/11/21 07:05:32;;;;;;;6.05;2.78;;;5.40;99.90;;;;;;5058563;28;20127;-60
2022/11/21 07:07:59;;;;;;;7.32;2.35;;;5.30;99.90;;;;;;5058606;28;20339;-61
2022/11/21 07:10:25;;;;;;;12.25;2.80;;;5.30;99.90;;;;;;5058839;28;20420;-60
2022/11/21 07:15:35;;;;;;;5.20;2.28;;;5.20;99.90;;;;;;5059242;28;20036;-61
2022/11/21 07:18:01;;;;;;;5.38;2.15;;;5.20;99.90;;;;;;5058586;28;20036;-60
2022/11/21 07:20:27;;;;;;;10.07;2.35;;;5.20;99.90;;;;;;5058446;28;20400;-60
2022/11/21 07:22:56;;;;;;;7.97;2.38;;;5.20;99.90;;;;;;5058319;28;20032;-60
2022/11/21 07:25:22;;;;;;;11.05;2.95;;;5.20;99.90;;;;;;5057741;28;20293;-61
2022/11/21 07:27:48;;;;;;;7.90;2.90;;;5.20;99.90;;;;;;5057931;28;20034;-61
2022/11/21 07:30:14;;;;;;;6.03;2.53;;;5.20;99.90;;;;;;5058316;28;20033;-60
2022/11/21 07:32:40;;;;;;;7.68;2.83;;;5.20;99.90;;;;;;5058330;28;20028;-61
2022/11/21 07:35:06;;;;;;;10.35;3.55;;;5.30;99.90;;;;;;5040768;28;20033;-60
2022/11/21 07:37:37;;;;;;;9.07;2.97;;;5.30;99.90;;;;;;5058133;28;20112;-62
2022/11/21 07:40:04;;;;;;;9.63;2.78;;;6.10;99.90;;;;;;5057322;28;20033;-61
2022/11/21 07:42:32;;;;;;;8.70;2.80;;;5.70;99.90;;;;;;5057077;28;20082;-59
2022/11/21 07:44:58;;;;;;;8.85;2.55;;;5.60;99.90;;;;;;5057085;28;20037;-62
2022/11/21 07:47:24;;;;;;;6.90;2.88;;;5.70;99.90;;;;;;5057229;28;20040;-61
2022/11/21 07:49:50;;;;;;;11.57;2.65;;;5.50;99.90;;;;;;5058115;28;20080;-61
2022/11/21 07:52:15;;;;;;;12.13;2.58;;;5.40;99.90;;;;;;5057106;28;20328;-61
2022/11/21 07:54:41;;;;;;;10.75;2.58;;;5.60;99.90;;;;;;5040488;28;20131;-61
2022/11/21 07:57:07;;;;;;;9.32;2.95;;;5.30;99.90;;;;;;5056870;28;20355;-62
2022/11/21 07:59:33;;;;;;;8.43;2.97;;;5.30;99.90;;;;;;5056934;28;20169;-62
2022/11/21 08:01:59;;;;;;;9.23;3.20;;;5.20;99.90;;;;;;5057660;28;20074;-61
2022/11/21 08:04:25;;;;;;;10.38;2.70;;;5.20;99.90;;;;;;5056130;28;20371;-61
2022/11/21 08:06:51;;;;;;;8.75;2.95;;;5.20;99.90;;;;;;5056919;28;20086;-62
2022/11/21 08:09:16;;;;;;;22.77;6.03;;;5.50;99.90;;;;;;5023762;28;20044;-61
2022/11/21 08:11:42;;;;;;;7.07;2.95;;;5.70;99.90;;;;;;5057242;28;20482;-61
2022/11/21 08:14:08;;;;;;;5.97;2.60;;;5.60;99.90;;;;;;5056513;28;20025;-61
2022/11/21 08:16:34;;;;;;;9.38;2.78;;;5.60;99.90;;;;;;5056699;28;20036;-62
2022/11/21 08:19:00;;;;;;;11.40;2.95;;;5.50;99.90;;;;;;5057059;28;20065;-60
2022/11/21 08:21:26;;;;;;;7.93;3.25;;;5.40;99.90;;;;;;5040045;28;20040;-62
2022/11/21 08:23:52;;;;;;;8.77;3.10;;;5.70;99.90;;;;;;5039871;28;20021;-61
2022/11/21 08:26:18;;;;;;;8.70;3.30;;;5.60;99.90;;;;;;5057303;28;20025;-61
2022/11/21 08:28:44;;;;;;;9.38;3.40;;;5.60;99.90;;;;;;5057135;28;20040;-62
2022/11/21 08:31:10;;;;;;;10.45;3.45;;;5.60;99.90;;;;;;5056475;28;20115;-61
2022/11/21 08:33:36;;;;;;;8.85;3.25;;;5.50;99.90;;;;;;5056972;28;20101;-60
2022/11/21 08:36:06;;;;;;;10.80;3.20;;;5.50;99.90;;;;;;5057081;28;20068;-60
2022/11/21 08:38:32;;;;;;;8.70;2.92;;;5.60;99.90;;;;;;5056966;28;20037;-61
2022/11/21 08:43:42;;;;;;;12.52;3.17;;;5.80;99.90;;;;;;5056838;28;20025;-63
2022/11/21 08:46:08;;;;;;;5.50;2.45;;;5.80;99.90;;;;;;5056228;28;20120;-61
2022/11/21 08:48:34;;;;;;;12.45;3.28;;;5.90;99.90;;;;;;5056088;28;20044;-59
2022/11/21 08:51:00;;;;;;;10.63;2.67;;;6.00;99.90;;;;;;5056828;28;20037;-62
2022/11/21 08:53:25;;;;;;;10.75;3.20;;;6.20;99.90;;;;;;5056884;28;20053;-62
2022/11/21 08:55:53;;;;;;;9.40;2.95;;;6.20;99.90;;;;;;5056852;28;20114;-62
2022/11/21 08:58:19;;;;;;;6.22;3.10;;;6.20;99.90;;;;;;5056051;28;20083;-62
2022/11/21 09:00:44;;;;;;;9.70;3.00;;;6.10;99.90;;;;;;5055861;28;20041;-62
2022/11/21 09:03:10;;;;;;;12.15;2.83;;;6.10;99.90;;;;;;5039345;28;20032;-62
2022/11/21 09:05:36;;;;;;;6.05;2.47;;;6.10;99.90;;;;;;5039193;28;20045;-63
2022/11/21 09:08:02;;;;;;;5.55;2.50;;;6.30;99.90;;;;;;5056170;28;20039;-63
2022/11/21 09:10:28;;;;;;;8.73;2.45;;;6.40;99.90;;;;;;5056713;28;20029;-62
2022/11/21 09:12:58;;;;;;;8.40;2.78;;;6.20;99.90;;;;;;5039717;28;20282;-61
2022/11/21 09:18:10;;;;;;;8.55;3.00;;;6.40;99.90;;;;;;5060429;28;20074;-62
2022/11/21 09:20:41;;;;;;;12.38;3.22;;;6.20;99.90;;;;;;5060545;28;20119;-60
2022/11/21 09:23:09;;;;;;;10.98;2.85;;;6.40;99.90;;;;;;5060748;28;20043;-62
2022/11/21 09:25:35;;;;;;;7.70;2.63;;;6.50;99.90;;;;;;5060627;28;20351;-63
2022/11/21 09:28:02;;;;;;;9.80;3.15;;;6.40;99.90;;;;;;5060564;28;20029;-62
2022/11/21 09:30:27;;;;;;;17.27;3.65;;;6.30;99.90;;;;;;5060616;28;20025;-61
2022/11/21 09:32:57;;;;;;;6.85;3.25;;;6.50;99.90;;;;;;5060447;28;20033;-63
2022/11/21 09:35:23;;;;;;;9.80;2.83;;;6.50;99.90;;;;;;5060395;28;20025;-62
2022/11/21 09:37:50;;;;;;;11.20;3.38;;;6.60;99.90;;;;;;5060553;28;20119;-63
2022/11/21 09:40:17;;;;;;;9.50;2.97;;;6.80;99.90;;;;;;5059466;28;20448;-62
2022/11/21 09:43:01;;;;;;;12.35;3.35;;;6.70;99.90;;;;;;5059615;28;20215;-62
2022/11/21 09:45:53;;;;;;;7.03;3.03;;;6.90;99.90;;;;;;5060224;28;20025;-62
2022/11/21 09:48:27;;;;;;;20.02;4.13;;;6.90;99.90;;;;;;5059990;28;20045;-60
2022/11/21 09:50:56;;;;;;;11.38;3.20;;;7.10;99.90;;;;;;5060232;28;20025;-60
2022/11/21 09:53:33;;;;;;;11.02;3.38;;;7.20;99.90;;;;;;5059428;28;20037;-61
2022/11/21 09:56:12;;;;;;;12.70;3.15;;;7.30;99.90;;;;;;5059992;28;20021;-61
2022/11/21 09:58:48;;;;;;;11.90;3.55;;;7.90;99.90;;;;;;5059820;28;20036;-60
2022/11/21 10:01:15;;;;;;;26.45;5.00;;;8.00;99.90;;;;;;5060610;28;20049;-62
2022/11/21 10:03:45;;;;;;;22.10;4.10;;;8.00;99.90;;;;;;5059670;28;20296;-61
2022/11/21 10:06:18;;;;;;;11.60;3.88;;;8.40;99.90;;;;;;5059805;28;20025;-61
2022/11/21 10:09:03;;;;;;;13.57;4.13;;;8.90;99.90;;;;;;5059854;28;20080;-61
2022/11/21 10:12:35;;;;;;;15.55;4.63;;;9.50;99.90;;;;;;5059894;28;20112;-61
2022/11/21 10:14:51;;;;;;;27.55;4.97;;;9.70;99.90;;;;;;5059546;28;20037;-61
2022/11/21 10:17:50;;;;;;;12.82;3.47;;;9.50;99.90;;;;;;5059601;28;20035;-61
2022/11/21 10:20:36;;;;;;;10.73;3.63;;;9.30;99.90;;;;;;5058700;28;20355;-61
2022/11/21 10:23:10;;;;;;;13.20;4.78;;;9.40;99.90;;;;;;5059766;28;20393;-60
2022/11/21 10:25:37;;;;;;;13.63;4.68;;;9.70;99.90;;;;;;5059708;28;20028;-60
2022/11/21 10:28:28;;;;;;;11.15;4.40;;;9.40;99.90;;;;;;5059099;28;20090;-60
2022/11/21 10:30:57;;;;;;;12.68;4.38;;;9.70;99.90;;;;;;5059357;28;20032;-60
2022/11/21 10:33:31;;;;;;;9.48;3.75;;;10.10;99.90;;;;;;5058460;28;20021;-60
2022/11/21 10:36:04;;;;;;;9.93;4.07;;;9.90;99.90;;;;;;5059330;28;20408;-60
2022/11/21 10:38:39;;;;;;;9.57;3.90;;;9.60;99.90;;;;;;5059144;28;20040;-60
2022/11/21 10:41:55;;;;;;;10.10;3.80;;;9.30;99.90;;;;;;5058690;28;20412;-60
2022/11/21 10:47:28;;;;;;;11.85;3.70;;;8.90;99.90;;;;;;5037791;28;20196;-60
2022/11/21 10:50:01;;;;;;;8.73;3.25;;;8.70;99.90;;;;;;5052146;28;20041;-60
2022/11/21 10:52:31;;;;;;;10.00;3.05;;;8.40;99.90;;;;;;5059064;28;20032;-60
2022/11/21 10:55:09;;;;;;;9.98;3.45;;;8.10;99.90;;;;;;5058118;28;20106;-60
2022/11/21 10:57:39;;;;;;;9.63;2.63;;;8.00;99.90;;;;;;5058101;28;20367;-60
2022/11/21 11:00:11;;;;;;;15.30;3.92;;;8.00;99.90;;;;;;5057953;28;20418;-61
2022/11/21 11:02:39;;;;;;;32.63;6.15;;;8.00;99.90;;;;;;5057927;28;20308;-59
2022/11/21 11:05:27;;;;;;;33.85;4.50;;;8.20;99.90;;;;;;5058584;28;20310;-61
2022/11/21 11:08:13;;;;;;;16.40;3.42;;;8.50;99.90;;;;;;5058761;28;20021;-59
2022/11/21 11:10:43;;;;;;;41.20;5.07;;;8.70;99.90;;;;;;5041480;28;20392;-59
2022/11/21 11:16:10;;;;;;;7.40;2.45;;;8.90;99.90;;;;;;5058515;28;20329;-60
2022/11/21 11:18:59;;;;;;;8.90;2.78;;;8.70;99.90;;;;;;5058396;28;20057;-60
2022/11/21 11:21:40;;;;;;;8.27;2.42;;;8.70;99.90;;;;;;5058609;28;20029;-60
2022/11/21 11:24:09;;;;;;;10.02;3.20;;;8.90;99.90;;;;;;5058616;28;20025;-61
2022/11/21 11:26:59;;;;;;;6.97;3.20;;;8.70;99.90;;;;;;5058737;28;20025;-60
2022/11/21 11:29:26;;;;;;;13.00;3.67;;;8.40;99.90;;;;;;5058351;28;20096;-60
2022/11/21 11:31:57;;;;;;;10.45;3.38;;;8.40;99.90;;;;;;5058396;28;20087;-60
2022/11/21 11:34:34;;;;;;;8.77;2.92;;;8.30;99.90;;;;;;5057568;28;20312;-60
2022/11/21 11:37:19;;;;;;;8.10;3.63;;;8.50;99.90;;;;;;5058061;28;20048;-60
2022/11/21 11:39:48;;;;;;;14.85;3.97;;;8.80;99.90;;;;;;5057136;28;20270;-60
2022/11/21 11:48:44;;;;;;;8.13;3.97;;;9.20;99.90;;;;;;5058001;28;20036;-60
2022/11/21 11:51:19;;;;;;;8.40;3.75;;;9.20;99.90;;;;;;5057884;28;20033;-59
2022/11/21 11:53:52;;;;;;;8.50;4.28;;;9.30;99.90;;;;;;5057937;28;20040;-60
2022/11/21 11:56:23;;;;;;;11.23;3.70;;;9.30;99.90;;;;;;5057837;28;20025;-60
2022/11/21 11:59:06;;;;;;;7.47;4.05;;;9.40;99.90;;;;;;5057971;28;20304;-60
2022/11/21 12:01:48;;;;;;;9.77;4.53;;;9.30;99.90;;;;;;5057092;28;20048;-60
2022/11/21 12:04:20;;;;;;;11.02;4.68;;;9.40;99.90;;;;;;5057351;28;20059;-59
2022/11/21 12:07:11;;;;;;;10.07;4.35;;;9.40;99.90;;;;;;5056952;28;20036;-59
2022/11/21 12:09:49;;;;;;;7.05;3.42;;;9.20;99.90;;;;;;5057393;28;20136;-58
2022/11/21 12:12:38;;;;;;;9.20;3.67;;;8.90;99.90;;;;;;5057735;28;20419;-60
2022/11/21 12:18:19;;;;;;;5.88;2.85;;;8.80;99.90;;;;;;5057583;28;20300;-60
2022/11/21 12:21:10;;;;;;;11.38;3.65;;;8.80;99.90;;;;;;5056402;28;20035;-59
2022/11/21 12:23:49;;;;;;;8.35;4.10;;;9.20;99.90;;;;;;5057334;28;20032;-60
2022/11/21 12:26:33;;;;;;;11.55;3.95;;;9.00;99.90;;;;;;5057448;28;20029;-61
2022/11/21 12:29:19;;;;;;;8.25;3.78;;;8.90;99.90;;;;;;5057195;28;20037;-60
2022/11/21 12:32:36;;;;;;;7.72;4.47;;;8.80;99.90;;;;;;5056421;28;20075;-60
2022/11/21 12:35:13;;;;;;;16.45;4.75;;;8.60;99.90;;;;;;5045265;28;20099;-58
2022/11/21 12:38:01;;;;;;;8.63;5.03;;;8.60;99.90;;;;;;5057060;28;20024;-60
2022/11/21 12:40:29;;;;;;;7.53;4.15;;;8.60;99.90;;;;;;5056967;28;20430;-60
2022/11/21 12:43:16;;;;;;;11.95;4.50;;;8.60;99.90;;;;;;5057013;28;20033;-60
2022/11/21 12:45:51;;;;;;;12.52;5.30;;;8.80;99.90;;;;;;5056233;28;20032;-60
2022/11/21 12:55:08;;;;;;;14.52;4.75;;;8.80;99.90;;;;;;5056779;28;20055;-59
2022/11/21 12:57:49;;;;;;;11.55;4.72;;;9.00;99.90;;;;;;5045241;28;20051;-59
2022/11/21 13:00:50;;;;;;;13.52;5.43;;;9.10;99.90;;;;;;5056774;28;20029;-59
2022/11/21 13:03:37;;;;;;;10.95;4.55;;;9.20;99.90;;;;;;5056885;28;20293;-59
2022/11/21 13:06:08;;;;;;;14.98;4.82;;;8.80;99.90;;;;;;5055808;28;20148;-59
2022/11/21 13:08:37;;;;;;;14.93;4.93;;;8.60;99.90;;;;;;5056717;28;20028;-59
2022/11/21 13:14:35;;;;;;;20.80;5.55;;;8.90;99.90;;;;;;5056675;28;20091;-58
2022/11/21 13:17:13;;;;;;;18.17;7.22;;;9.30;99.90;;;;;;5056651;28;20351;-58
2022/11/21 13:19:55;;;;;;;18.70;7.68;;;9.40;99.90;;;;;;5055690;28;20032;-59
2022/11/21 13:22:36;;;;;;;19.77;9.77;;;9.50;99.90;;;;;;5055723;28;20028;-58
2022/11/21 13:25:29;;;;;;;17.83;10.27;;;9.50;99.90;;;;;;5055842;28;20393;-58
2022/11/21 13:28:15;;;;;;;;;;;9.40;99.90;;;;;;5057051;28;20033;-58
2022/11/21 13:30:54;;;;;;;19.25;8.55;;;9.50;99.90;;;;;;5056821;28;19909;-58
2022/11/21 13:33:38;;;;;;;12.98;6.50;;;9.50;99.90;;;;;;5056497;28;20037;-58
2022/11/21 13:36:10;;;;;;;12.90;5.70;;;9.50;99.90;;;;;;5056691;28;20400;-58
2022/11/21 13:39:09;;;;;;;11.75;4.57;;;9.60;99.90;;;;;;5056376;28;20127;-58
2022/11/21 13:44:42;;;;;;;9.82;4.18;;;9.90;99.90;;;;;;5057092;28;20029;-58
2022/11/21 13:47:13;;;;;;;10.07;4.20;;;9.90;99.90;;;;;;5053511;28;20052;-58
2022/11/21 13:49:47;;;;;;;11.52;3.92;;;9.80;99.90;;;;;;5056678;28;20033;-58
2022/11/21 13:52:36;;;;;;;10.98;4.03;;;9.90;99.90;;;;;;5056234;28;20036;-59